Data for 06/17/2009

Time Sea-Level Adjusted Pressure Absolute Pressure Temperature Relative Humidity Dew Point   
(mb) (inHg) (mb) (inHg) (C) (F) (%) (C) (F)
00:05 1016 30 845 24.95 14 57.1 69 8.4 47.1
00:10 1016 30 845 24.95 13.7 56.7 70 8.3 47
00:15 1016 30 845 24.95 13.5 56.3 71 8.4 47.1
00:20 1016 30 845 24.95 13.3 56 71 8.1 46.6
00:25 1016 30 845 24.95 13.4 56.2 70 8 46.4
00:30 1016 30 845 24.95 13.5 56.4 70 8.1 46.6
00:35 1016 30 845 24.95 13.6 56.5 69 8.1 46.6
00:40 1015 29.97 845 24.95 13.5 56.2 69 8 46.5
00:45 1015 29.97 845 24.95 13.3 56 70 7.9 46.3
00:50 1015 29.97 845 24.95 13.2 55.7 69 7.8 46
00:55 1015 29.97 845 24.95 13.1 55.6 69 7.6 45.6
01:00 1015 29.97 845 24.95 13.2 55.8 70 7.8 46.1
01:05 1015 29.97 844 24.92 13 55.4 71 8 46.3
01:10 1015 29.97 845 24.95 12.9 55.3 71 7.9 46.3
01:15 1015 29.97 845 24.95 13 55.4 70 7.6 45.7
01:20 1015 29.97 845 24.95 13.1 55.5 70 7.7 45.9
01:25 1015 29.97 845 24.95 13 55.4 70 7.7 45.9
01:30 1015 29.97 845 24.95 13 55.4 70 7.7 45.9
01:35 1015 29.97 845 24.95 13 55.4 70 7.7 45.8
01:40 1016 30 845 24.95 13.1 55.6 70 7.7 45.9
01:45 1016 30 845 24.95 13.4 56.1 69 7.8 46.1
01:50 1016 30 845 24.95 13.3 55.9 70 7.9 46.2
01:55 1016 30 845 24.95 13.1 55.6 69 7.7 45.8
02:00 1016 30 845 24.95 13.1 55.7 69 7.7 45.9
02:05 1016 30 845 24.95 13.1 55.6 70 7.7 45.9
02:10 1016 30 845 24.95 13.1 55.6 68 7.4 45.3
02:15 1016 30 845 24.95 13.3 55.9 68 7.6 45.7
02:20 1016 30 845 24.95 13.4 56.2 68 7.8 46
02:25 1016 30 845 24.95 13.2 55.8 72 8.3 47
02:30 1016 30 846 24.98 12.8 55.1 76 8.7 47.6
02:35 1016 30 846 24.98 12.6 54.6 81 9.4 49
02:40 1016 30 846 24.98 12.1 53.8 83 9.4 48.9
02:45 1016 30 845 24.95 11.9 53.5 85 9.5 49.2
02:50 1016 30 845 24.95 11.9 53.4 86 9.6 49.4
02:55 1016 30 845 24.95 11.8 53.3 85 9.4 49
03:00 1016 30 845 24.95 12 53.5 73 7.4 45.3
03:05 1016 30 846 24.98 12.5 54.5 75 8.1 46.6
03:10 1016 30 845 24.95 12.4 54.3 78 8.7 47.7
03:15 1016 30 846 24.98 11.9 53.4 85 9.5 49.2
03:20 1016 30 845 24.95 11.4 52.4 89 9.6 49.2
03:25 1016 30 845 24.95 11.2 52.2 87 9.1 48.5
03:30 1016 30 845 24.95 11.3 52.3 86 9 48.1
03:35 1016 30 845 24.95 11.4 52.4 85 9 48.2
03:40 1016 30 845 24.95 11.6 52.8 80 8.3 47
03:45 1016 30 845 24.95 11.7 53.1 82 8.7 47.7
03:50 1016 30 845 24.95 11.9 53.3 83 9.1 48.3
03:55 1016 30 845 24.95 11.6 52.8 87 9.4 48.9
04:00 1016 30 845 24.95 11.4 52.4 88 9.4 48.9
04:05 1016 30 845 24.95 11.3 52.3 87 9.2 48.6
04:10 1016 30 845 24.95 11.4 52.5 86 9.2 48.5
04:15 1016 30 845 24.95 11.4 52.6 87 9.3 48.7
04:20 1016 30 845 24.95 11.2 52.2 87 9.2 48.6
04:25 1016 30 845 24.95 11 51.8 90 9.5 49.1
04:30 1016 30 845 24.95 10.9 51.5 90 9.3 48.7
04:35 1016 30 845 24.95 11 51.8 88 9.1 48.4
04:40 1016 30 845 24.95 11.2 52.2 87 9.2 48.6
04:45 1016 30 845 24.95 11.3 52.3 87 9.1 48.4
04:50 1016 30 845 24.95 11.1 52.1 87 9.1 48.3
04:55 1015 29.97 845 24.95 11 51.8 89 9.2 48.6
05:00 1015 29.97 845 24.95 10.8 51.5 90 9.2 48.6
05:05 1015 29.97 845 24.95 10.9 51.6 88 9 48.2
05:10 1015 29.97 845 24.95 11.1 51.9 88 9.1 48.4
05:15 1015 29.97 845 24.95 10.9 51.7 89 9.2 48.5
05:20 1015 29.97 844 24.92 10.8 51.5 89 9.1 48.4
05:25 1015 29.97 844 24.92 10.8 51.5 89 9 48.2
05:30 1015 29.97 844 24.92 10.9 51.6 87 8.8 47.8
05:35 1015 29.97 844 24.92 10.9 51.6 88 8.9 48
05:40 1015 29.97 844 24.92 10.9 51.6 87 8.9 48
05:45 1015 29.97 845 24.95 10.9 51.7 87 8.8 47.9
05:50 1015 29.97 845 24.95 11.1 51.9 86 8.8 47.8
05:55 1015 29.97 845 24.95 11.1 52 84 8.5 47.3
06:00 1015 29.97 845 24.95 11.2 52.2 83 8.4 47.1
06:05 1015 29.97 845 24.95 11.3 52.4 82 8.4 47.1
06:10 1015 29.97 845 24.95 11.4 52.4 83 8.7 47.6
06:15 1015 29.97 845 24.95 11.2 52.2 86 8.9 48
06:20 1015 29.97 845 24.95 11.2 52.1 83 8.4 47.1
06:25 1015 29.97 845 24.95 11.2 52.2 84 8.7 47.7
06:30 1015 29.97 845 24.95 11.1 52 85 8.7 47.7
06:35 1015 29.97 845 24.95 11.1 52 84 8.6 47.5
06:40 1015 29.97 845 24.95 11.2 52.1 84 8.6 47.4
06:45 1015 29.97 845 24.95 11.3 52.3 82 8.3 47
06:50 1015 29.97 845 24.95 11.5 52.8 81 8.5 47.2
06:55 1015 29.97 845 24.95 11.5 52.7 83 8.7 47.7
07:00 1015 29.97 845 24.95 11.4 52.6 83 8.6 47.5
07:05 1015 29.97 844 24.92 11.6 52.8 82 8.6 47.5
07:10 1015 29.97 844 24.92 11.8 53.3 82 8.9 48
07:15 1015 29.97 844 24.92 11.8 53.3 82 8.9 47.9
07:20 1015 29.97 844 24.92 11.8 53.2 83 9 48.3
07:25 1015 29.97 844 24.92 11.7 53.1 83 9 48.3
07:30 1015 29.97 844 24.92 11.7 53.1 85 9.2 48.6
07:35 1015 29.97 844 24.92 11.8 53.3 83 9.1 48.4
07:40 1015 29.97 844 24.92 12 53.6 83 9.2 48.6
07:45 1015 29.97 844 24.92 12.2 53.9 82 9.3 48.7
07:50 1015 29.97 844 24.92 12.2 54 82 9.2 48.5
07:55 1015 29.97 844 24.92 12.5 54.5 81 9.4 48.9
08:00 1015 29.97 844 24.92 12.8 55 76 8.7 47.7
08:05 1015 29.97 844 24.92 13 55.5 77 9.2 48.5
08:10 1015 29.97 845 24.95 13.2 55.7 77 9.3 48.8
08:15 1015 29.97 845 24.95 13.3 55.9 77 9.3 48.7
08:20 1015 29.97 845 24.95 13.5 56.3 73 8.8 47.9
08:25 1015 29.97 845 24.95 13.8 56.8 74 9.3 48.8
08:30 1015 29.97 845 24.95 14.1 57.3 72 9.2 48.5
08:35 1015 29.97 845 24.95 14.4 57.9 71 9.3 48.8
08:40 1015 29.97 845 24.95 14.6 58.3 72 9.6 49.3
08:45 1015 29.97 845 24.95 14.7 58.5 72 9.8 49.6
08:50 1016 30 845 24.95 15.2 59.4 71 10 50
08:55 1016 30 845 24.95 15.2 59.3 68 9.3 48.7
09:00 1016 30 845 24.95 15.4 59.8 68 9.7 49.4
09:05 1016 30 845 24.95 15.4 59.7 68 9.5 49.1
09:10 1016 30 845 24.95 15.2 59.3 68 9.4 48.9
09:15 1016 30 845 24.95 15.3 59.5 73 10.6 51
09:20 1016 30 845 24.95 15.6 60.1 68 9.8 49.6
09:25 1016 30 845 24.95 16.2 61.1 67 10.1 50.2
09:30 1016 30 845 24.95 17.1 62.9 60 9.3 48.8
09:35 1016 30 845 24.95 17.8 64.1 60 10.1 50.2
09:40 1016 30 845 24.95 17.7 63.9 59 9.8 49.7
09:45 1016 30 845 24.95 17.5 63.5 59 9.6 49.3
09:50 1015 29.97 845 24.95 17.6 63.8 61 10 50.1
09:55 1015 29.97 845 24.95 18 64.3 59 10 50
10:00 1015 29.97 845 24.95 18.6 65.5 57 9.9 49.9
10:05 1015 29.97 845 24.95 17.6 63.6 64 10.6 51.2
10:10 1015 29.97 845 24.95 17.1 62.7 64 10.3 50.5
10:15 1015 29.97 844 24.92 16.9 62.4 65 10.3 50.5
10:20 1015 29.97 844 24.92 17.3 63.1 64 10.5 50.8
10:25 1015 29.97 844 24.92 17.4 63.3 61 9.9 49.8
10:30 1015 29.97 844 24.92 18.1 64.5 59 9.9 49.8
10:35 1015 29.97 844 24.92 17.5 63.5 63 10.5 50.9
10:40 1015 29.97 844 24.92 18 64.3 57 9.3 48.8
10:45 1015 29.97 844 24.92 18.7 65.7 55 9.6 49.3
10:50 1015 29.97 844 24.92 18.8 65.8 56 10 49.9
10:55 1015 29.97 844 24.92 18.8 65.8 54 9.3 48.8
11:00 1015 29.97 844 24.92 18.4 65.1 56 9.5 49
11:05 1015 29.97 844 24.92 18.3 64.9 55 9.1 48.4
11:10 1015 29.97 844 24.92 19.4 67 49 8.5 47.3
11:15 1015 29.97 844 24.92 20.1 68.1 47 8.6 47.5
11:20 1015 29.97 844 24.92 19.5 67.1 45 7.4 45.3
11:25 1015 29.97 844 24.92 18.6 65.6 45 6.7 44.1
11:30 1014 29.94 844 24.92 19.4 66.8 42 6.4 43.5
11:35 1014 29.94 844 24.92 19.5 67 41 6.1 43
11:40 1014 29.94 844 24.92 19.2 66.6 43 6.5 43.7
11:45 1015 29.97 844 24.92 19.4 66.9 42 6.4 43.6
11:50 1014 29.94 844 24.92 20.4 68.8 41 6.8 44.3
11:55 1014 29.94 844 24.92 20.9 69.6 40 7 44.6
12:00 1014 29.94 844 24.92 20.7 69.3 41 7.1 44.8
12:05 1014 29.94 843 24.89 21.2 70.1 39 6.9 44.5
12:10 1014 29.94 843 24.89 20.9 69.6 40 7 44.7
12:15 1014 29.94 843 24.89 20.5 68.8 41 6.9 44.4
12:20 1014 29.94 843 24.89 19.5 67.1 45 7.3 45.2
12:25 1014 29.94 843 24.89 19.4 66.8 45 7.1 44.8
12:30 1014 29.94 844 24.92 19 66.1 50 8.5 47.4
12:35 1015 29.97 844 24.92 19.3 66.7 54 9.7 49.5
12:40 1015 29.97 844 24.92 18.5 65.3 53 8.9 48
12:45 1015 29.97 844 24.92 17.8 64.1 50 7.2 45
12:50 1015 29.97 844 24.92 17.7 63.9 55 8.7 47.7
12:55 1015 29.97 844 24.92 17.5 63.4 53 7.8 46
13:00 1015 29.97 844 24.92 16.9 62.4 59 8.8 47.9
13:05 1015 29.97 844 24.92 16.1 60.9 60 8.5 47.3
13:10 1015 29.97 844 24.92 15.9 60.6 59 8 46.5
13:15 1015 29.97 844 24.92 15.8 60.4 65 9.3 48.8
13:20 1014 29.94 844 24.92 15.7 60.3 62 8.5 47.2
13:25 1014 29.94 843 24.89 15.7 60.2 60 7.9 46.2
13:30 1014 29.94 843 24.89 15.7 60.2 64 8.9 48
13:35 1014 29.94 843 24.89 16.1 61 62 8.8 47.8
13:40 1014 29.94 843 24.89 16.2 61.2 65 9.7 49.4
13:45 1014 29.94 843 24.89 16.2 61.1 68 10.4 50.7
13:50 1014 29.94 843 24.89 16.2 61.1 60 8.5 47.4
13:55 1014 29.94 843 24.89 17 62.5 55 8.1 46.5
14:00 1014 29.94 843 24.89 17.5 63.5 52 7.7 45.9
14:05 1014 29.94 843 24.89 18.3 64.9 52 8.4 47.2
14:10 1014 29.94 843 24.89 18.7 65.6 52 8.8 47.8
14:15 1014 29.94 843 24.89 19 66.1 44 6.7 44.1
14:20 1014 29.94 843 24.89 19.4 66.9 45 7.4 45.3
14:25 1014 29.94 843 24.89 19.7 67.4 42 6.6 43.9
14:30 1013 29.91 843 24.89 19.9 67.8 48 8.7 47.6
14:35 1013 29.91 843 24.89 19.6 67.4 46 7.8 46.1
14:40 1013 29.91 842 24.86 19.2 66.5 46 7.2 45
14:45 1013 29.91 842 24.86 19.9 67.7 42 6.6 44
14:50 1013 29.91 842 24.86 20.5 68.8 37 5.5 41.9
14:55 1013 29.91 842 24.86 21.1 70 35 5.2 41.4
15:00 1013 29.91 842 24.86 22.2 72 33 5.4 41.7
15:05 1013 29.91 842 24.86 21.9 71.4 37 6.8 44.2
15:10 1013 29.91 842 24.86 20.7 69.2 38 6.2 43.2
15:15 1013 29.91 842 24.86 20.3 68.5 39 6.2 43.1
15:20 1013 29.91 842 24.86 20.4 68.7 37 5.4 41.8
15:25 1013 29.91 842 24.86 21.3 70.3 37 6.1 43
15:30 1013 29.91 842 24.86 21.9 71.3 38 7.2 45
15:35 1013 29.91 842 24.86 22 71.5 38 7.1 44.8
15:40 1013 29.91 842 24.86 22.7 72.8 37 7.4 45.3
15:45 1013 29.91 842 24.86 23 73.4 37 7.5 45.6
15:50 1013 29.91 842 24.86 23.4 74.2 34 6.8 44.3
15:55 1013 29.91 842 24.86 22.6 72.7 35 6.5 43.6
16:00 1013 29.91 842 24.86 22.7 72.8 34 6.2 43.2
16:05 1012 29.88 842 24.86 23.2 73.8 32 5.9 42.6
16:10 1012 29.88 842 24.86 22.6 72.6 35 6.5 43.7
16:15 1012 29.88 842 24.86 22.5 72.4 38 7.5 45.6
16:20 1012 29.88 842 24.86 21.9 71.5 38 7.1 44.7
16:25 1012 29.88 842 24.86 22.8 73.1 33 5.9 42.7
16:30 1012 29.88 842 24.86 23.2 73.8 35 7.3 45.1
16:35 1012 29.88 842 24.86 22.2 72 37 7 44.7
16:40 1012 29.88 842 24.86 21.9 71.4 36 6.2 43.2
16:45 1012 29.88 842 24.86 22.2 71.9 32 5 41
16:50 1012 29.88 842 24.86 22.5 72.6 32 5.4 41.8
16:55 1012 29.88 842 24.86 21.8 71.2 40 7.8 46.1
17:00 1012 29.88 842 24.86 19.6 67.3 54 10.2 50.4
17:05 1013 29.91 842 24.86 17.6 63.7 61 10.2 50.3
17:10 1013 29.91 842 24.86 16.4 61.6 65 9.9 49.9
17:15 1013 29.91 843 24.89 15.4 59.6 67 9.3 48.7
17:20 1013 29.91 843 24.89 14.1 57.5 74 9.6 49.3
17:25 1013 29.91 842 24.86 12.9 55.1 81 9.7 49.4
17:30 1013 29.91 842 24.86 12.3 54.2 86 10 50
17:35 1013 29.91 842 24.86 12.6 54.8 87 10.5 50.9
17:40 1013 29.91 842 24.86 13.4 56.1 87 11.2 52.2
17:45 1013 29.91 842 24.86 14.1 57.3 82 11 51.8
17:50 1014 29.94 843 24.89 14.6 58.3 79 11.1 52
17:55 1014 29.94 843 24.89 14.7 58.5 74 10.2 50.4
18:00 1014 29.94 843 24.89 14.1 57.3 78 10.3 50.5
18:05 1014 29.94 843 24.89 13.5 56.2 82 10.5 50.9
18:10 1014 29.94 843 24.89 13.6 56.4 79 9.9 49.9
18:15 1014 29.94 843 24.89 13.9 57 76 9.8 49.7
18:20 1014 29.94 843 24.89 13.6 56.6 82 10.7 51.3
18:25 1014 29.94 843 24.89 13.5 56.3 82 10.4 50.8
18:30 1014 29.94 843 24.89 13.4 56.1 84 10.8 51.4
18:35 1014 29.94 843 24.89 13.6 56.6 79 10.1 50.2
18:40 1014 29.94 843 24.89 13.7 56.7 81 10.5 50.9
18:45 1014 29.94 843 24.89 13.9 57.1 78 10.1 50.2
18:50 1014 29.94 843 24.89 14.2 57.6 78 10.6 51
18:55 1014 29.94 843 24.89 14.6 58.2 76 10.4 50.7
19:00 1014 29.94 843 24.89 14.7 58.4 76 10.5 50.9
19:05 1014 29.94 843 24.89 14.8 58.7 75 10.5 50.8
19:10 1014 29.94 843 24.89 14.8 58.6 79 11.1 52
19:15 1014 29.94 843 24.89 14.4 57.9 82 11.3 52.3
19:20 1014 29.94 843 24.89 14.2 57.5 78 10.5 50.9
19:25 1014 29.94 843 24.89 14 57.2 80 10.6 51.1
19:30 1014 29.94 843 24.89 14 57.2 81 10.8 51.5
19:35 1014 29.94 843 24.89 13.9 57 83 11 51.8
19:40 1014 29.94 843 24.89 13.9 56.9 80 10.5 50.9
19:45 1014 29.94 843 24.89 13.9 57.1 81 10.7 51.3
19:50 1014 29.94 843 24.89 14.1 57.3 80 10.7 51.2
19:55 1014 29.94 843 24.89 14.3 57.7 78 10.5 51
20:00 1014 29.94 843 24.89 14.6 58.2 76 10.5 50.9
20:05 1014 29.94 843 24.89 14.8 58.6 75 10.4 50.8
20:10 1014 29.94 843 24.89 14.8 58.7 75 10.5 50.9
20:15 1014 29.94 843 24.89 14.9 58.7 74 10.3 50.5
20:20 1014 29.94 843 24.89 14.9 58.7 76 10.7 51.3
20:25 1014 29.94 843 24.89 14.8 58.6 75 10.4 50.7
20:30 1014 29.94 843 24.89 14.8 58.7 76 10.7 51.3
20:35 1014 29.94 843 24.89 14.8 58.6 74 10.2 50.4
20:40 1014 29.94 843 24.89 14.8 58.6 75 10.4 50.7
20:45 1014 29.94 843 24.89 14.8 58.6 75 10.4 50.7
20:50 1014 29.94 843 24.89 14.8 58.6 74 10.2 50.4
20:55 1014 29.94 843 24.89 14.7 58.4 75 10.4 50.6
21:00 1014 29.94 843 24.89 14.7 58.4 76 10.5 50.9
21:05 1014 29.94 843 24.89 14.6 58.3 77 10.6 51
21:10 1014 29.94 843 24.89 14.6 58.2 78 10.8 51.5
21:15 1014 29.94 843 24.89 14.4 58 81 11.2 52.1
21:20 1014 29.94 843 24.89 14.3 57.7 81 11.1 52
21:25 1014 29.94 844 24.92 14.1 57.3 79 10.5 51
21:30 1014 29.94 844 24.92 13.6 56.5 78 9.8 49.6
21:35 1014 29.94 844 24.92 13.2 55.7 77 9.3 48.8
21:40 1014 29.94 844 24.92 12.8 55 81 9.6 49.3
21:45 1014 29.94 844 24.92 12.3 54.2 85 9.9 49.8
21:50 1015 29.97 844 24.92 11.9 53.5 88 10.1 50.1
21:55 1015 29.97 844 24.92 11.8 53.2 89 9.9 49.9
22:00 1015 29.97 844 24.92 11.8 53.2 87 9.6 49.3
22:05 1015 29.97 844 24.92 11.8 53.2 84 9.2 48.6
22:10 1015 29.97 844 24.92 11.8 53.3 85 9.4 48.9
22:15 1015 29.97 844 24.92 11.9 53.5 85 9.4 49
22:20 1015 29.97 844 24.92 11.8 53.2 84 9.2 48.6
22:25 1015 29.97 844 24.92 11.6 52.9 85 9.1 48.4
22:30 1015 29.97 844 24.92 11.7 53 86 9.4 48.9
22:35 1015 29.97 844 24.92 11.7 53 86 9.4 49
22:40 1015 29.97 844 24.92 11.7 53 87 9.7 49.4
22:45 1015 29.97 844 24.92 11.6 52.9 87 9.5 49.1
22:50 1015 29.97 844 24.92 11.6 52.9 87 9.5 49.1
22:55 1015 29.97 844 24.92 11.6 52.8 87 9.5 49.2
23:00 1015 29.97 844 24.92 11.5 52.7 87 9.5 49
23:05 1015 29.97 844 24.92 11.4 52.5 86 9.1 48.5
23:10 1015 29.97 844 24.92 11.2 52.2 86 9 48.2
23:15 1015 29.97 844 24.92 11.1 52 87 9.1 48.4
23:20 1015 29.97 844 24.92 11.1 51.9 88 9.1 48.4
23:25 1015 29.97 844 24.92 11.2 52.1 85 8.7 47.6
23:30 1015 29.97 844 24.92 11.2 52.2 85 8.8 47.8
23:35 1015 29.97 844 24.92 11.2 52.2 82 8.2 46.8
23:40 1015 29.97 844 24.92 11.3 52.3 82 8.4 47.1
23:45 1015 29.97 844 24.92 11.2 52.1 83 8.5 47.2
23:50 1015 29.97 844 24.92 11.1 51.9 84 8.5 47.3
23:55 1015 29.97 844 24.92 11 51.8 86 8.7 47.6
24:00 1015 29.97 844 24.92 10.9 51.6 86 8.7 47.7